sensor_id;sensor_type;location;lat;lon;timestamp;temperature;humidity
7204;DHT22;3643;52.460;13.322;2024-01-07T00:02:26;-0.90;99.90
7204;DHT22;3643;52.460;13.322;2024-01-07T00:04:54;-0.90;99.90
7204;DHT22;3643;52.460;13.322;2024-01-07T00:07:22;-0.90;99.90
7204;DHT22;3643;52.460;13.322;2024-01-07T00:09:50;-0.80;99.90
7204;DHT22;3643;52.460;13.322;2024-01-07T00:12:18;-0.90;99.90
7204;DHT22;3643;52.460;13.322;2024-01-07T00:14:46;-0.90;99.90
7204;DHT22;3643;52.460;13.322;2024-01-07T00:17:14;-0.90;99.90
7204;DHT22;3643;52.460;13.322;2024-01-07T00:19:44;-0.40;99.90
7204;DHT22;3643;52.460;13.322;2024-01-07T00:22:12;-0.80;99.90
7204;DHT22;3643;52.460;13.322;2024-01-07T00:24:40;-0.80;99.90
7204;DHT22;3643;52.460;13.322;2024-01-07T00:27:08;-0.80;99.90
7204;DHT22;3643;52.460;13.322;2024-01-07T00:29:36;-0.80;99.90
7204;DHT22;3643;52.460;13.322;2024-01-07T00:32:04;-0.90;99.90
7204;DHT22;3643;52.460;13.322;2024-01-07T00:34:33;-0.90;99.90
7204;DHT22;3643;52.460;13.322;2024-01-07T00:37:03;-0.90;99.90
7204;DHT22;3643;52.460;13.322;2024-01-07T00:39:31;-0.90;99.90
7204;DHT22;3643;52.460;13.322;2024-01-07T00:41:59;-0.90;99.90
7204;DHT22;3643;52.460;13.322;2024-01-07T00:44:27;-1.00;99.90
7204;DHT22;3643;52.460;13.322;2024-01-07T00:46:55;-0.90;99.90
7204;DHT22;3643;52.460;13.322;2024-01-07T00:49:23;-0.90;99.90
7204;DHT22;3643;52.460;13.322;2024-01-07T00:51:52;-0.90;99.90
7204;DHT22;3643;52.460;13.322;2024-01-07T00:54:21;-1.00;99.90
7204;DHT22;3643;52.460;13.322;2024-01-07T00:56:49;-1.10;99.90
7204;DHT22;3643;52.460;13.322;2024-01-07T00:59:18;-1.10;99.90
7204;DHT22;3643;52.460;13.322;2024-01-07T01:01:46;-1.10;99.90
7204;DHT22;3643;52.460;13.322;2024-01-07T01:04:14;-1.20;99.90
7204;DHT22;3643;52.460;13.322;2024-01-07T01:06:42;-1.20;99.90
7204;DHT22;3643;52.460;13.322;2024-01-07T01:09:10;-1.20;99.90
7204;DHT22;3643;52.460;13.322;2024-01-07T01:11:40;-1.20;99.90
7204;DHT22;3643;52.460;13.322;2024-01-07T01:14:08;-1.20;99.90
7204;DHT22;3643;52.460;13.322;2024-01-07T01:16:36;-1.20;99.90
7204;DHT22;3643;52.460;13.322;2024-01-07T01:19:04;-1.20;99.90
7204;DHT22;3643;52.460;13.322;2024-01-07T01:21:32;-1.20;99.90
7204;DHT22;3643;52.460;13.322;2024-01-07T01:24:00;-1.10;99.90
7204;DHT22;3643;52.460;13.322;2024-01-07T01:26:28;-1.20;99.90
7204;DHT22;3643;52.460;13.322;2024-01-07T01:28:58;-1.20;99.90
7204;DHT22;3643;52.460;13.322;2024-01-07T01:31:26;-1.30;99.90
7204;DHT22;3643;52.460;13.322;2024-01-07T01:33:54;-1.20;99.90
7204;DHT22;3643;52.460;13.322;2024-01-07T01:36:23;-1.30;99.90
7204;DHT22;3643;52.460;13.322;2024-01-07T01:38:51;-1.30;99.90
7204;DHT22;3643;52.460;13.322;2024-01-07T01:41:19;-1.30;99.90
7204;DHT22;3643;52.460;13.322;2024-01-07T01:43:47;-1.30;99.90
7204;DHT22;3643;52.460;13.322;2024-01-07T01:46:17;-1.30;99.90
7204;DHT22;3643;52.460;13.322;2024-01-07T01:48:45;-1.50;99.90
7204;DHT22;3643;52.460;13.322;2024-01-07T01:51:13;-1.50;99.90
7204;DHT22;3643;52.460;13.322;2024-01-07T01:53:41;-1.40;99.90
7204;DHT22;3643;52.460;13.322;2024-01-07T01:56:10;-1.40;99.90
7204;DHT22;3643;52.460;13.322;2024-01-07T01:58:38;-1.40;99.90
7204;DHT22;3643;52.460;13.322;2024-01-07T02:01:06;-1.50;99.90
7204;DHT22;3643;52.460;13.322;2024-01-07T02:03:36;-1.50;99.90
7204;DHT22;3643;52.460;13.322;2024-01-07T02:06:05;-1.60;99.90
7204;DHT22;3643;52.460;13.322;2024-01-07T02:08:33;-1.60;99.90
7204;DHT22;3643;52.460;13.322;2024-01-07T02:11:14;-1.50;99.90
7204;DHT22;3643;52.460;13.322;2024-01-07T02:13:43;-1.40;99.90
7204;DHT22;3643;52.460;13.322;2024-01-07T02:16:11;-1.60;99.90
7204;DHT22;3643;52.460;13.322;2024-01-07T02:18:44;-1.70;99.90
7204;DHT22;3643;52.460;13.322;2024-01-07T02:21:13;-1.60;99.90
7204;DHT22;3643;52.460;13.322;2024-01-07T02:23:42;-1.60;99.90
7204;DHT22;3643;52.460;13.322;2024-01-07T02:26:11;-1.60;99.90
7204;DHT22;3643;52.460;13.322;2024-01-07T02:28:39;-1.60;99.90
7204;DHT22;3643;52.460;13.322;2024-01-07T02:31:07;-1.70;99.90
7204;DHT22;3643;52.460;13.322;2024-01-07T02:33:35;-1.70;99.90
7204;DHT22;3643;52.460;13.322;2024-01-07T02:36:04;-1.70;99.90
7204;DHT22;3643;52.460;13.322;2024-01-07T02:38:32;-1.80;99.90
7204;DHT22;3643;52.460;13.322;2024-01-07T02:41:00;-1.80;99.90
7204;DHT22;3643;52.460;13.322;2024-01-07T02:43:30;-1.80;99.90
7204;DHT22;3643;52.460;13.322;2024-01-07T02:45:58;-1.80;99.90
7204;DHT22;3643;52.460;13.322;2024-01-07T02:48:26;-1.90;99.90
7204;DHT22;3643;52.460;13.322;2024-01-07T02:50:55;-2.00;99.90
7204;DHT22;3643;52.460;13.322;2024-01-07T02:53:23;-2.00;99.90
7204;DHT22;3643;52.460;13.322;2024-01-07T02:55:51;-2.10;99.90
7204;DHT22;3643;52.460;13.322;2024-01-07T02:58:19;-2.10;99.90
7204;DHT22;3643;52.460;13.322;2024-01-07T03:00:49;-1.70;99.90
7204;DHT22;3643;52.460;13.322;2024-01-07T03:03:17;-2.20;99.90
7204;DHT22;3643;52.460;13.322;2024-01-07T03:05:45;-2.30;99.90
7204;DHT22;3643;52.460;13.322;2024-01-07T03:08:14;-2.30;99.90
7204;DHT22;3643;52.460;13.322;2024-01-07T03:10:42;-2.40;99.90
7204;DHT22;3643;52.460;13.322;2024-01-07T03:13:10;-2.40;99.90
7204;DHT22;3643;52.460;13.322;2024-01-07T03:15:39;-2.50;99.90
7204;DHT22;3643;52.460;13.322;2024-01-07T03:18:08;-2.60;99.90
7204;DHT22;3643;52.460;13.322;2024-01-07T03:20:37;-2.10;99.90
7204;DHT22;3643;52.460;13.322;2024-01-07T03:23:05;-2.20;99.90
7204;DHT22;3643;52.460;13.322;2024-01-07T03:25:33;-2.60;99.90
7204;DHT22;3643;52.460;13.322;2024-01-07T03:28:01;-2.60;99.90
7204;DHT22;3643;52.460;13.322;2024-01-07T03:30:29;-2.60;99.90
7204;DHT22;3643;52.460;13.322;2024-01-07T03:32:57;-2.70;99.90
7204;DHT22;3643;52.460;13.322;2024-01-07T03:35:27;-2.70;99.90
7204;DHT22;3643;52.460;13.322;2024-01-07T03:37:55;-2.70;99.90
7204;DHT22;3643;52.460;13.322;2024-01-07T03:40:23;-2.30;99.90
7204;DHT22;3643;52.460;13.322;2024-01-07T03:42:51;-2.60;99.90
7204;DHT22;3643;52.460;13.322;2024-01-07T03:45:20;-2.70;99.90
7204;DHT22;3643;52.460;13.322;2024-01-07T03:47:48;-2.70;99.90
7204;DHT22;3643;52.460;13.322;2024-01-07T03:50:16;-2.70;99.90
7204;DHT22;3643;52.460;13.322;2024-01-07T03:52:46;-2.70;99.90
7204;DHT22;3643;52.460;13.322;2024-01-07T03:55:14;-2.70;99.90
7204;DHT22;3643;52.460;13.322;2024-01-07T03:57:43;-2.80;99.90
7204;DHT22;3643;52.460;13.322;2024-01-07T04:00:12;-2.80;99.90
7204;DHT22;3643;52.460;13.322;2024-01-07T04:02:40;-2.70;99.90
7204;DHT22;3643;52.460;13.322;2024-01-07T04:05:09;-2.90;99.90
7204;DHT22;3643;52.460;13.322;2024-01-07T04:07:37;-2.90;99.90
7204;DHT22;3643;52.460;13.322;2024-01-07T04:10:07;-2.90;99.90
7204;DHT22;3643;52.460;13.322;2024-01-07T04:12:36;-2.90;99.90
7204;DHT22;3643;52.460;13.322;2024-01-07T04:15:05;-2.90;99.90
7204;DHT22;3643;52.460;13.322;2024-01-07T04:17:33;-2.90;99.90
7204;DHT22;3643;52.460;13.322;2024-01-07T04:20:01;-2.90;99.90
7204;DHT22;3643;52.460;13.322;2024-01-07T04:22:29;-2.90;99.90
7204;DHT22;3643;52.460;13.322;2024-01-07T04:24:58;-2.90;99.90
7204;DHT22;3643;52.460;13.322;2024-01-07T04:27:27;-2.90;99.90
7204;DHT22;3643;52.460;13.322;2024-01-07T04:29:55;-2.90;99.90
7204;DHT22;3643;52.460;13.322;2024-01-07T04:32:23;-3.00;99.90
7204;DHT22;3643;52.460;13.322;2024-01-07T04:34:51;-3.00;99.90
7204;DHT22;3643;52.460;13.322;2024-01-07T04:37:20;-3.00;99.90
7204;DHT22;3643;52.460;13.322;2024-01-07T04:39:48;-2.80;99.90
7204;DHT22;3643;52.460;13.322;2024-01-07T04:42:17;-3.00;99.90
7204;DHT22;3643;52.460;13.322;2024-01-07T04:44:46;-3.10;99.90
7204;DHT22;3643;52.460;13.322;2024-01-07T04:47:25;-3.10;99.90
7204;DHT22;3643;52.460;13.322;2024-01-07T04:49:54;-3.10;99.90
7204;DHT22;3643;52.460;13.322;2024-01-07T04:52:23;-2.90;99.90
7204;DHT22;3643;52.460;13.322;2024-01-07T04:54:51;-3.00;99.90
7204;DHT22;3643;52.460;13.322;2024-01-07T04:57:20;-3.00;99.90
7204;DHT22;3643;52.460;13.322;2024-01-07T04:59:50;-3.00;99.90
7204;DHT22;3643;52.460;13.322;2024-01-07T05:02:18;-2.90;99.90
7204;DHT22;3643;52.460;13.322;2024-01-07T05:04:47;-2.70;99.90
7204;DHT22;3643;52.460;13.322;2024-01-07T05:07:15;-3.00;99.90
7204;DHT22;3643;52.460;13.322;2024-01-07T05:09:43;-3.00;99.90
7204;DHT22;3643;52.460;13.322;2024-01-07T05:12:11;-3.10;99.90
7204;DHT22;3643;52.460;13.322;2024-01-07T05:14:40;-3.10;99.90
7204;DHT22;3643;52.460;13.322;2024-01-07T05:17:10;-3.10;99.90
7204;DHT22;3643;52.460;13.322;2024-01-07T05:19:40;-3.10;99.90
7204;DHT22;3643;52.460;13.322;2024-01-07T05:22:08;-3.20;99.90
7204;DHT22;3643;52.460;13.322;2024-01-07T05:24:37;-3.10;99.90
7204;DHT22;3643;52.460;13.322;2024-01-07T05:27:05;-3.10;99.90
7204;DHT22;3643;52.460;13.322;2024-01-07T05:29:33;-2.90;99.90
7204;DHT22;3643;52.460;13.322;2024-01-07T05:32:02;-3.10;99.90
7204;DHT22;3643;52.460;13.322;2024-01-07T05:34:32;-3.20;99.90
7204;DHT22;3643;52.460;13.322;2024-01-07T05:37:00;-3.20;99.90
7204;DHT22;3643;52.460;13.322;2024-01-07T05:39:28;-3.20;99.90
7204;DHT22;3643;52.460;13.322;2024-01-07T05:41:56;-3.30;99.90
7204;DHT22;3643;52.460;13.322;2024-01-07T05:44:24;-3.30;99.90
7204;DHT22;3643;52.460;13.322;2024-01-07T05:46:55;-3.30;99.90
7204;DHT22;3643;52.460;13.322;2024-01-07T05:49:23;-3.30;99.90
7204;DHT22;3643;52.460;13.322;2024-01-07T05:51:53;-3.20;99.90
7204;DHT22;3643;52.460;13.322;2024-01-07T05:54:21;-3.20;99.90
7204;DHT22;3643;52.460;13.322;2024-01-07T05:56:50;-3.20;99.90
7204;DHT22;3643;52.460;13.322;2024-01-07T05:59:19;-3.20;99.90
7204;DHT22;3643;52.460;13.322;2024-01-07T06:01:47;-3.20;99.90
7204;DHT22;3643;52.460;13.322;2024-01-07T06:04:15;-3.20;99.90
7204;DHT22;3643;52.460;13.322;2024-01-07T06:06:43;-3.20;99.90
7204;DHT22;3643;52.460;13.322;2024-01-07T06:09:13;-3.20;99.90
7204;DHT22;3643;52.460;13.322;2024-01-07T06:11:41;-3.10;99.90
7204;DHT22;3643;52.460;13.322;2024-01-07T06:14:09;-3.10;99.90
7204;DHT22;3643;52.460;13.322;2024-01-07T06:16:37;-3.00;99.90
7204;DHT22;3643;52.460;13.322;2024-01-07T06:19:05;-3.00;99.90
7204;DHT22;3643;52.460;13.322;2024-01-07T06:21:34;-2.90;99.90
7204;DHT22;3643;52.460;13.322;2024-01-07T06:24:02;-2.90;99.90
7204;DHT22;3643;52.460;13.322;2024-01-07T06:26:32;-2.90;99.90
7204;DHT22;3643;52.460;13.322;2024-01-07T06:29:00;-2.90;99.90
7204;DHT22;3643;52.460;13.322;2024-01-07T06:31:28;-2.50;99.90
7204;DHT22;3643;52.460;13.322;2024-01-07T06:33:57;-2.90;99.90
7204;DHT22;3643;52.460;13.322;2024-01-07T06:36:25;-2.80;99.90
7204;DHT22;3643;52.460;13.322;2024-01-07T06:38:53;-2.80;99.90
7204;DHT22;3643;52.460;13.322;2024-01-07T06:41:21;-2.70;99.90
7204;DHT22;3643;52.460;13.322;2024-01-07T06:43:51;-2.70;99.90
7204;DHT22;3643;52.460;13.322;2024-01-07T06:46:21;-2.70;99.90
7204;DHT22;3643;52.460;13.322;2024-01-07T06:48:49;-2.70;99.90
7204;DHT22;3643;52.460;13.322;2024-01-07T06:51:18;-2.70;99.90
7204;DHT22;3643;52.460;13.322;2024-01-07T06:53:46;-2.70;99.90
7204;DHT22;3643;52.460;13.322;2024-01-07T06:56:14;-2.70;99.90
7204;DHT22;3643;52.460;13.322;2024-01-07T06:58:42;-2.70;99.90
7204;DHT22;3643;52.460;13.322;2024-01-07T07:01:12;-2.70;99.90
7204;DHT22;3643;52.460;13.322;2024-01-07T07:03:40;-2.70;99.90
7204;DHT22;3643;52.460;13.322;2024-01-07T07:06:09;-2.70;99.90
7204;DHT22;3643;52.460;13.322;2024-01-07T07:08:38;-2.70;99.90
7204;DHT22;3643;52.460;13.322;2024-01-07T07:11:07;-2.70;99.90
7204;DHT22;3643;52.460;13.322;2024-01-07T07:13:35;-2.70;99.90
7204;DHT22;3643;52.460;13.322;2024-01-07T07:16:06;-2.70;99.90
7204;DHT22;3643;52.460;13.322;2024-01-07T07:18:35;-2.70;99.90
7204;DHT22;3643;52.460;13.322;2024-01-07T07:21:04;-2.60;99.90
7204;DHT22;3643;52.460;13.322;2024-01-07T07:23:32;-2.60;99.90
7204;DHT22;3643;52.460;13.322;2024-01-07T07:26:00;-2.60;99.90
7204;DHT22;3643;52.460;13.322;2024-01-07T07:28:28;-2.50;99.90
7204;DHT22;3643;52.460;13.322;2024-01-07T07:30:56;-2.50;99.90
7204;DHT22;3643;52.460;13.322;2024-01-07T07:33:24;-2.40;99.90
7204;DHT22;3643;52.460;13.322;2024-01-07T07:35:54;-2.50;99.90
7204;DHT22;3643;52.460;13.322;2024-01-07T07:38:23;-2.50;99.90
7204;DHT22;3643;52.460;13.322;2024-01-07T07:40:51;-2.40;99.90
7204;DHT22;3643;52.460;13.322;2024-01-07T07:43:20;-2.40;99.90
7204;DHT22;3643;52.460;13.322;2024-01-07T07:45:48;-2.40;99.90
7204;DHT22;3643;52.460;13.322;2024-01-07T07:48:18;-2.40;99.90
7204;DHT22;3643;52.460;13.322;2024-01-07T07:50:46;-2.40;99.90
7204;DHT22;3643;52.460;13.322;2024-01-07T07:53:15;-2.30;99.90
7204;DHT22;3643;52.460;13.322;2024-01-07T07:55:43;-2.30;99.90
7204;DHT22;3643;52.460;13.322;2024-01-07T07:58:12;-2.30;99.90
7204;DHT22;3643;52.460;13.322;2024-01-07T08:00:40;-2.50;99.90
7204;DHT22;3643;52.460;13.322;2024-01-07T08:03:08;-2.20;99.90
7204;DHT22;3643;52.460;13.322;2024-01-07T08:05:36;-2.20;99.90
7204;DHT22;3643;52.460;13.322;2024-01-07T08:08:05;-2.10;99.90
7204;DHT22;3643;52.460;13.322;2024-01-07T08:10:35;-2.20;99.90
7204;DHT22;3643;52.460;13.322;2024-01-07T08:13:03;-2.10;99.90
7204;DHT22;3643;52.460;13.322;2024-01-07T08:15:33;-2.10;99.90
7204;DHT22;3643;52.460;13.322;2024-01-07T08:18:01;-2.10;99.90
7204;DHT22;3643;52.460;13.322;2024-01-07T08:20:30;-2.00;99.90
7204;DHT22;3643;52.460;13.322;2024-01-07T08:22:58;-2.00;99.90
7204;DHT22;3643;52.460;13.322;2024-01-07T08:25:27;-2.00;99.90
7204;DHT22;3643;52.460;13.322;2024-01-07T08:27:56;-2.00;99.90
7204;DHT22;3643;52.460;13.322;2024-01-07T08:30:24;-2.00;99.90
7204;DHT22;3643;52.460;13.322;2024-01-07T08:32:53;-2.00;99.90
7204;DHT22;3643;52.460;13.322;2024-01-07T08:35:21;-1.90;99.90
7204;DHT22;3643;52.460;13.322;2024-01-07T08:37:53;-1.80;99.90
7204;DHT22;3643;52.460;13.322;2024-01-07T08:40:21;-1.80;99.90
7204;DHT22;3643;52.460;13.322;2024-01-07T08:42:49;-1.70;99.90
7204;DHT22;3643;52.460;13.322;2024-01-07T08:45:19;-1.50;99.90
7204;DHT22;3643;52.460;13.322;2024-01-07T08:47:47;-1.50;99.90
7204;DHT22;3643;52.460;13.322;2024-01-07T08:50:16;-1.50;99.90
7204;DHT22;3643;52.460;13.322;2024-01-07T08:52:44;-1.50;99.90
7204;DHT22;3643;52.460;13.322;2024-01-07T08:55:13;-1.50;99.90
7204;DHT22;3643;52.460;13.322;2024-01-07T08:57:42;-1.50;99.90
7204;DHT22;3643;52.460;13.322;2024-01-07T09:00:11;-1.50;99.90
7204;DHT22;3643;52.460;13.322;2024-01-07T09:02:40;-1.40;99.90
7204;DHT22;3643;52.460;13.322;2024-01-07T09:05:10;-1.40;99.90
7204;DHT22;3643;52.460;13.322;2024-01-07T09:07:38;-1.40;99.90
7204;DHT22;3643;52.460;13.322;2024-01-07T09:10:07;-1.30;99.90
7204;DHT22;3643;52.460;13.322;2024-01-07T09:12:40;-1.30;99.90
7204;DHT22;3643;52.460;13.322;2024-01-07T09:15:08;-1.20;99.90
7204;DHT22;3643;52.460;13.322;2024-01-07T09:17:37;-1.20;99.90
7204;DHT22;3643;52.460;13.322;2024-01-07T09:20:09;-1.20;99.90
7204;DHT22;3643;52.460;13.322;2024-01-07T09:22:38;-1.10;99.90
7204;DHT22;3643;52.460;13.322;2024-01-07T09:25:07;-1.10;99.90
7204;DHT22;3643;52.460;13.322;2024-01-07T09:27:35;-1.00;99.90
7204;DHT22;3643;52.460;13.322;2024-01-07T09:30:04;-1.00;99.90
7204;DHT22;3643;52.460;13.322;2024-01-07T09:32:33;-1.00;99.90
7204;DHT22;3643;52.460;13.322;2024-01-07T09:35:05;-1.00;99.90
7204;DHT22;3643;52.460;13.322;2024-01-07T09:37:35;-0.90;99.90
7204;DHT22;3643;52.460;13.322;2024-01-07T09:40:04;-0.90;99.90
7204;DHT22;3643;52.460;13.322;2024-01-07T09:42:33;-0.90;99.90
7204;DHT22;3643;52.460;13.322;2024-01-07T09:45:03;-0.90;99.90
7204;DHT22;3643;52.460;13.322;2024-01-07T09:47:32;-0.90;99.90
7204;DHT22;3643;52.460;13.322;2024-01-07T09:50:00;-0.60;99.90
7204;DHT22;3643;52.460;13.322;2024-01-07T09:52:28;-0.90;99.90
7204;DHT22;3643;52.460;13.322;2024-01-07T09:55:02;-1.00;99.90
7204;DHT22;3643;52.460;13.322;2024-01-07T09:57:30;-0.90;99.90
7204;DHT22;3643;52.460;13.322;2024-01-07T10:00:00;-0.90;99.90
7204;DHT22;3643;52.460;13.322;2024-01-07T10:02:29;-0.90;99.90
7204;DHT22;3643;52.460;13.322;2024-01-07T10:04:57;-0.90;99.90
7204;DHT22;3643;52.460;13.322;2024-01-07T10:07:25;-0.90;99.90
7204;DHT22;3643;52.460;13.322;2024-01-07T10:09:53;-0.90;99.90
7204;DHT22;3643;52.460;13.322;2024-01-07T10:12:24;-1.00;99.90
7204;DHT22;3643;52.460;13.322;2024-01-07T10:14:53;-1.00;99.90
7204;DHT22;3643;52.460;13.322;2024-01-07T10:17:21;-1.00;99.90
7204;DHT22;3643;52.460;13.322;2024-01-07T10:19:54;-0.90;99.90
7204;DHT22;3643;52.460;13.322;2024-01-07T10:22:22;-1.10;99.90
7204;DHT22;3643;52.460;13.322;2024-01-07T10:24:52;-1.10;99.90
7204;DHT22;3643;52.460;13.322;2024-01-07T10:27:24;-1.00;99.90
7204;DHT22;3643;52.460;13.322;2024-01-07T10:29:52;-1.00;99.90
7204;DHT22;3643;52.460;13.322;2024-01-07T10:32:22;-0.60;99.90
7204;DHT22;3643;52.460;13.322;2024-01-07T10:34:53;-1.00;99.90
7204;DHT22;3643;52.460;13.322;2024-01-07T10:37:26;-1.00;99.90
7204;DHT22;3643;52.460;13.322;2024-01-07T10:39:56;-0.70;99.90
7204;DHT22;3643;52.460;13.322;2024-01-07T10:42:30;-0.90;99.90
7204;DHT22;3643;52.460;13.322;2024-01-07T10:44:59;-0.90;99.90
7204;DHT22;3643;52.460;13.322;2024-01-07T10:47:30;-0.90;99.90
7204;DHT22;3643;52.460;13.322;2024-01-07T10:49:59;-0.90;99.90
7204;DHT22;3643;52.460;13.322;2024-01-07T10:52:28;-0.80;99.90
7204;DHT22;3643;52.460;13.322;2024-01-07T10:54:57;-0.90;99.90
7204;DHT22;3643;52.460;13.322;2024-01-07T10:57:34;-0.90;99.90
7204;DHT22;3643;52.460;13.322;2024-01-07T11:00:03;-1.00;99.90
7204;DHT22;3643;52.460;13.322;2024-01-07T11:02:40;-0.90;99.90
7204;DHT22;3643;52.460;13.322;2024-01-07T11:05:16;-1.00;99.90
7204;DHT22;3643;52.460;13.322;2024-01-07T11:07:53;-0.80;99.90
7204;DHT22;3643;52.460;13.322;2024-01-07T11:10:28;-0.90;99.90
7204;DHT22;3643;52.460;13.322;2024-01-07T11:13:31;-0.60;99.90
7204;DHT22;3643;52.460;13.322;2024-01-07T11:16:00;-0.80;99.90
7204;DHT22;3643;52.460;13.322;2024-01-07T11:18:28;-0.80;99.90
7204;DHT22;3643;52.460;13.322;2024-01-07T11:21:01;-0.70;99.90
7204;DHT22;3643;52.460;13.322;2024-01-07T11:23:30;-0.70;99.90
7204;DHT22;3643;52.460;13.322;2024-01-07T11:26:00;-0.60;99.90
7204;DHT22;3643;52.460;13.322;2024-01-07T11:28:46;-0.60;99.90
7204;DHT22;3643;52.460;13.322;2024-01-07T11:31:16;-0.60;99.90
7204;DHT22;3643;52.460;13.322;2024-01-07T11:33:46;-0.60;99.90
7204;DHT22;3643;52.460;13.322;2024-01-07T11:36:15;-0.60;99.90
7204;DHT22;3643;52.460;13.322;2024-01-07T11:38:45;-0.70;99.90
7204;DHT22;3643;52.460;13.322;2024-01-07T11:41:18;-0.60;99.90
7204;DHT22;3643;52.460;13.322;2024-01-07T11:43:56;-0.50;99.90
7204;DHT22;3643;52.460;13.322;2024-01-07T11:46:32;-0.50;99.90
7204;DHT22;3643;52.460;13.322;2024-01-07T11:49:01;-0.50;99.90
7204;DHT22;3643;52.460;13.322;2024-01-07T11:51:31;-0.40;99.90
7204;DHT22;3643;52.460;13.322;2024-01-07T11:54:00;-0.40;99.90
7204;DHT22;3643;52.460;13.322;2024-01-07T11:56:29;-0.50;99.90
7204;DHT22;3643;52.460;13.322;2024-01-07T11:58:59;-0.40;99.90
7204;DHT22;3643;52.460;13.322;2024-01-07T12:01:27;-0.40;99.90
7204;DHT22;3643;52.460;13.322;2024-01-07T12:03:55;-0.40;99.90
7204;DHT22;3643;52.460;13.322;2024-01-07T12:06:24;-0.50;99.90
7204;DHT22;3643;52.460;13.322;2024-01-07T12:08:52;-0.50;99.90
7204;DHT22;3643;52.460;13.322;2024-01-07T12:11:20;-0.40;99.90
7204;DHT22;3643;52.460;13.322;2024-01-07T12:13:50;-0.20;99.90
7204;DHT22;3643;52.460;13.322;2024-01-07T12:16:20;-0.40;99.90
7204;DHT22;3643;52.460;13.322;2024-01-07T12:18:48;-0.30;99.90
7204;DHT22;3643;52.460;13.322;2024-01-07T12:21:19;-0.50;99.90
7204;DHT22;3643;52.460;13.322;2024-01-07T12:23:48;-0.50;99.90
7204;DHT22;3643;52.460;13.322;2024-01-07T12:26:17;-0.50;99.90
7204;DHT22;3643;52.460;13.322;2024-01-07T12:28:52;-0.50;99.90
7204;DHT22;3643;52.460;13.322;2024-01-07T12:31:22;-0.50;99.90
7204;DHT22;3643;52.460;13.322;2024-01-07T12:33:51;-0.50;99.90
7204;DHT22;3643;52.460;13.322;2024-01-07T12:36:21;-0.40;99.90
7204;DHT22;3643;52.460;13.322;2024-01-07T12:38:50;-0.50;99.90
7204;DHT22;3643;52.460;13.322;2024-01-07T12:41:21;-0.40;99.90
7204;DHT22;3643;52.460;13.322;2024-01-07T12:43:49;-0.30;99.90
7204;DHT22;3643;52.460;13.322;2024-01-07T12:46:18;-0.20;99.90
7204;DHT22;3643;52.460;13.322;2024-01-07T12:48:47;-0.40;99.90
7204;DHT22;3643;52.460;13.322;2024-01-07T12:51:16;-0.30;99.90
7204;DHT22;3643;52.460;13.322;2024-01-07T12:53:49;-0.30;99.90
7204;DHT22;3643;52.460;13.322;2024-01-07T12:56:17;-0.30;99.90
7204;DHT22;3643;52.460;13.322;2024-01-07T12:58:45;-0.30;99.90
7204;DHT22;3643;52.460;13.322;2024-01-07T13:01:13;-0.30;99.90
7204;DHT22;3643;52.460;13.322;2024-01-07T13:03:42;-0.10;99.90
7204;DHT22;3643;52.460;13.322;2024-01-07T13:06:12;-0.20;99.90
7204;DHT22;3643;52.460;13.322;2024-01-07T13:08:40;-0.40;99.90
7204;DHT22;3643;52.460;13.322;2024-01-07T13:11:08;-0.40;99.90
7204;DHT22;3643;52.460;13.322;2024-01-07T13:13:41;-0.20;99.90
7204;DHT22;3643;52.460;13.322;2024-01-07T13:16:09;-0.30;99.90
7204;DHT22;3643;52.460;13.322;2024-01-07T13:18:38;-0.20;99.90
7204;DHT22;3643;52.460;13.322;2024-01-07T13:21:06;-0.20;99.90
7204;DHT22;3643;52.460;13.322;2024-01-07T13:23:35;-0.20;99.90
7204;DHT22;3643;52.460;13.322;2024-01-07T13:26:04;-0.20;99.90
7204;DHT22;3643;52.460;13.322;2024-01-07T13:28:33;-0.30;99.90
7204;DHT22;3643;52.460;13.322;2024-01-07T13:31:02;-0.30;99.90
7204;DHT22;3643;52.460;13.322;2024-01-07T13:33:31;-0.30;99.90
7204;DHT22;3643;52.460;13.322;2024-01-07T13:35:59;-0.30;99.90
7204;DHT22;3643;52.460;13.322;2024-01-07T13:38:29;-0.30;99.90
7204;DHT22;3643;52.460;13.322;2024-01-07T13:40:59;-0.30;99.90
7204;DHT22;3643;52.460;13.322;2024-01-07T13:43:27;-0.30;99.90
7204;DHT22;3643;52.460;13.322;2024-01-07T13:45:56;-0.30;99.90
7204;DHT22;3643;52.460;13.322;2024-01-07T13:48:24;-0.30;99.90
7204;DHT22;3643;52.460;13.322;2024-01-07T13:50:52;-0.30;99.90
7204;DHT22;3643;52.460;13.322;2024-01-07T13:53:21;-0.30;99.90
7204;DHT22;3643;52.460;13.322;2024-01-07T13:55:49;-0.40;99.90
7204;DHT22;3643;52.460;13.322;2024-01-07T13:58:19;-0.30;99.90
7204;DHT22;3643;52.460;13.322;2024-01-07T14:00:48;-0.40;99.90
7204;DHT22;3643;52.460;13.322;2024-01-07T14:03:17;-0.30;99.90
7204;DHT22;3643;52.460;13.322;2024-01-07T14:05:45;-0.30;99.90
7204;DHT22;3643;52.460;13.322;2024-01-07T14:08:14;-0.10;99.90
7204;DHT22;3643;52.460;13.322;2024-01-07T14:10:42;-0.20;99.90
7204;DHT22;3643;52.460;13.322;2024-01-07T14:13:10;-0.30;99.90
7204;DHT22;3643;52.460;13.322;2024-01-07T14:15:39;-0.30;99.90
7204;DHT22;3643;52.460;13.322;2024-01-07T14:18:08;-0.30;99.90
7204;DHT22;3643;52.460;13.322;2024-01-07T14:20:37;-0.30;99.90
7204;DHT22;3643;52.460;13.322;2024-01-07T14:23:05;-0.30;99.90
7204;DHT22;3643;52.460;13.322;2024-01-07T14:25:33;-0.30;99.90
7204;DHT22;3643;52.460;13.322;2024-01-07T14:28:01;0.00;99.90
7204;DHT22;3643;52.460;13.322;2024-01-07T14:30:31;-0.30;99.90
7204;DHT22;3643;52.460;13.322;2024-01-07T14:33:00;-0.30;99.90
7204;DHT22;3643;52.460;13.322;2024-01-07T14:35:28;-0.30;99.90
7204;DHT22;3643;52.460;13.322;2024-01-07T14:37:58;-0.20;99.90
7204;DHT22;3643;52.460;13.322;2024-01-07T14:40:26;-0.30;99.90
7204;DHT22;3643;52.460;13.322;2024-01-07T14:42:54;-0.20;99.90
7204;DHT22;3643;52.460;13.322;2024-01-07T14:45:25;-0.20;99.90
7204;DHT22;3643;52.460;13.322;2024-01-07T14:47:54;-0.10;99.90
7204;DHT22;3643;52.460;13.322;2024-01-07T14:50:24;-0.10;99.90
7204;DHT22;3643;52.460;13.322;2024-01-07T14:53:05;0.00;99.90
7204;DHT22;3643;52.460;13.322;2024-01-07T14:55:33;-0.20;99.90
7204;DHT22;3643;52.460;13.322;2024-01-07T14:58:01;-0.10;99.90
7204;DHT22;3643;52.460;13.322;2024-01-07T15:00:29;-0.10;99.90
7204;DHT22;3643;52.460;13.322;2024-01-07T15:02:58;-0.20;99.90
7204;DHT22;3643;52.460;13.322;2024-01-07T15:05:28;-0.20;99.90
7204;DHT22;3643;52.460;13.322;2024-01-07T15:07:56;-0.10;99.90
7204;DHT22;3643;52.460;13.322;2024-01-07T15:10:25;-0.10;99.90
7204;DHT22;3643;52.460;13.322;2024-01-07T15:12:53;-0.20;99.90
7204;DHT22;3643;52.460;13.322;2024-01-07T15:15:33;-0.10;99.90
7204;DHT22;3643;52.460;13.322;2024-01-07T15:18:01;-0.10;99.90
7204;DHT22;3643;52.460;13.322;2024-01-07T15:20:31;-0.10;99.90
7204;DHT22;3643;52.460;13.322;2024-01-07T15:22:59;-0.10;99.90
7204;DHT22;3643;52.460;13.322;2024-01-07T15:25:28;-0.10;99.90
7204;DHT22;3643;52.460;13.322;2024-01-07T15:27:56;-0.10;99.90
7204;DHT22;3643;52.460;13.322;2024-01-07T15:30:24;-0.10;99.90
7204;DHT22;3643;52.460;13.322;2024-01-07T15:32:53;-0.10;99.90
7204;DHT22;3643;52.460;13.322;2024-01-07T15:35:22;-0.20;99.90
7204;DHT22;3643;52.460;13.322;2024-01-07T15:37:51;-0.10;99.90
7204;DHT22;3643;52.460;13.322;2024-01-07T15:40:21;-0.10;99.90
7204;DHT22;3643;52.460;13.322;2024-01-07T15:42:50;-0.10;99.90
7204;DHT22;3643;52.460;13.322;2024-01-07T15:45:18;-0.10;99.90
7204;DHT22;3643;52.460;13.322;2024-01-07T15:47:47;-0.10;99.90
7204;DHT22;3643;52.460;13.322;2024-01-07T15:50:15;-0.10;99.90
7204;DHT22;3643;52.460;13.322;2024-01-07T15:52:43;-0.10;99.90
7204;DHT22;3643;52.460;13.322;2024-01-07T15:55:14;-0.20;99.90
7204;DHT22;3643;52.460;13.322;2024-01-07T15:57:43;-0.20;99.90
7204;DHT22;3643;52.460;13.322;2024-01-07T16:00:13;-0.20;99.90